logo tempoitalia

Diretta Meteo Magadan, Russialunedì 31 agosto ore 16:00

Mappa
Sereno 18 °C Sereno 24 Ore: T.min -1 T.max 22
Ponente Sud-Ovest Km/h 18 Punto di rugiada: 7 °C Umidità: 48% Visibilità: 10 Km
Il sole sorge alle: 05:50 Il sole tramonta alle: 20:04
31 Agosto 2026 16:00 tempo osservato: Sereno Sereno 18 48 1017 vento: Nord SO 18
31 Agosto 2026 15:30 tempo osservato: Sereno Sereno 19 45 1017 vento: Nord S/SO 14.4
31 Agosto 2026 15:00 tempo osservato: Sereno Sereno 19 45 1018 vento: Nord SO 10.8
31 Agosto 2026 14:30 tempo osservato: Sereno Sereno 18 48 1018 vento: Nord O/SO 14.4
31 Agosto 2026 14:00 tempo osservato: Sereno Sereno 18 48 1018 vento: Nord N 7.2
31 Agosto 2026 13:30 tempo osservato: Sereno Sereno 17 45 1018 vento: Nord O/SO 10.8
31 Agosto 2026 13:00 tempo osservato: Sereno Sereno 17 45 1018 vento: Nord N 7.2
31 Agosto 2026 12:30 tempo osservato: Sereno Sereno 17 48 1019 vento: Nord N 7.2
31 Agosto 2026 12:00 tempo osservato: Sereno Sereno 16 47 1019 vento: Nord N 7.2
31 Agosto 2026 11:30 tempo osservato: Sereno Sereno 15 47 1020 vento: Nord N 3.6
31 Agosto 2026 11:00 tempo osservato: Sereno Sereno 14 50 1020 vento: Nord N 3.6
31 Agosto 2026 10:30 tempo osservato: Sereno Sereno 13 54 1020 vento: Nord N 3.6
31 Agosto 2026 10:00 tempo osservato: Sereno Sereno 12 54 1020 vento: Nord N 3.6
31 Agosto 2026 09:30 tempo osservato: Sereno Sereno 10 66 1020 vento: Nord N 3.6
31 Agosto 2026 09:00 tempo osservato: Sereno Sereno 7 75 1020 vento: Nord N 3.6
31 Agosto 2026 08:30 tempo osservato: Sereno Sereno 6 81 1021 vento: Nord N 3.6
31 Agosto 2026 08:00 tempo osservato: Sereno Sereno 5 80 1021 vento: Nord N 3.6
31 Agosto 2026 07:30 tempo osservato: Sereno Sereno 2 93 1021 vento: Nord N 0
31 Agosto 2026 07:00 tempo osservato: Sereno Sereno 1 93 1021 vento: Nord N 0
31 Agosto 2026 06:30 tempo osservato: Sereno Sereno -1 100 1021 vento: Nord N 0
31 Agosto 2026 06:00 tempo osservato: Sereno Sereno -1 100 1021 vento: Nord N 0
31 Agosto 2026 05:00 tempo osservato: Sereno Sereno -1 100 1020 vento: Nord N 0
31 Agosto 2026 04:00 tempo osservato: Sereno Sereno 1 100 1020 vento: Nord N 3.6
31 Agosto 2026 03:00 tempo osservato: Sereno Sereno 4 93 1020 vento: Nord N 7.2
31 Agosto 2026 02:00 tempo osservato: Sereno Sereno 5 93 1020 vento: Nord E 10.8
31 Agosto 2026 01:00 tempo osservato: Sereno Sereno 7 81 1020 vento: Nord E 10.8
31 Agosto 2026 00:00 tempo osservato: Sereno Sereno 8 87 1020 vento: Nord E 14.4
30 Agosto 2026 23:00 tempo osservato: Sereno Sereno 10 81 1019 vento: Nord E 10.8
30 Agosto 2026 22:00 tempo osservato: Sereno Sereno 11 71 1019 vento: Nord E/NE 18
30 Agosto 2026 21:00 tempo osservato: Sereno Sereno 9 93 1018 vento: Nord E 10.8
30 Agosto 2026 20:00 tempo osservato: Sereno Sereno 12 81 1017 vento: Nord N 7.2
30 Agosto 2026 19:30 tempo osservato: Sereno Sereno 15 67 1017 vento: Nord N 3.6
30 Agosto 2026 19:00 tempo osservato: Sereno Sereno 18 51 1017 vento: Nord N 7.2
30 Agosto 2026 18:30 tempo osservato: Sereno Sereno 19 48 1017 vento: Nord S/SO 10.8
30 Agosto 2026 18:00 tempo osservato: Sereno Sereno 21 28 1017 vento: Nord N 7.2
30 Agosto 2026 17:30 tempo osservato: Sereno Sereno 22 23 1017 vento: Nord N 10.8
30 Agosto 2026 17:00 tempo osservato: Poco Nuvoloso Poco Nuvoloso 22 23 1017 vento: Nord N 10.8